sensor_id;sensor_type;location;lat;lon;timestamp;P1;durP1;ratioP1;P2;durP2;ratioP2
1136;SDS011;557;48.466;7.950;2023-02-05T00:02:30;6.40;;;2.93;;
1136;SDS011;557;48.466;7.950;2023-02-05T00:05:17;5.80;;;3.03;;
1136;SDS011;557;48.466;7.950;2023-02-05T00:08:05;5.87;;;2.70;;
1136;SDS011;557;48.466;7.950;2023-02-05T00:10:52;6.10;;;2.70;;
1136;SDS011;557;48.466;7.950;2023-02-05T00:13:40;4.37;;;2.30;;
1136;SDS011;557;48.466;7.950;2023-02-05T00:16:28;5.90;;;2.17;;
1136;SDS011;557;48.466;7.950;2023-02-05T00:19:17;2.87;;;2.00;;
1136;SDS011;557;48.466;7.950;2023-02-05T00:22:04;4.17;;;2.80;;
1136;SDS011;557;48.466;7.950;2023-02-05T00:24:51;4.07;;;2.27;;
1136;SDS011;557;48.466;7.950;2023-02-05T00:27:39;4.13;;;2.20;;
1136;SDS011;557;48.466;7.950;2023-02-05T00:30:26;4.60;;;2.80;;
1136;SDS011;557;48.466;7.950;2023-02-05T00:33:14;4.97;;;2.40;;
1136;SDS011;557;48.466;7.950;2023-02-05T00:36:03;7.50;;;3.10;;
1136;SDS011;557;48.466;7.950;2023-02-05T00:38:51;7.73;;;2.90;;
1136;SDS011;557;48.466;7.950;2023-02-05T00:41:38;3.80;;;2.80;;
1136;SDS011;557;48.466;7.950;2023-02-05T00:44:25;4.17;;;2.73;;
1136;SDS011;557;48.466;7.950;2023-02-05T00:47:13;5.90;;;3.27;;
1136;SDS011;557;48.466;7.950;2023-02-05T00:50:01;7.93;;;3.30;;
1136;SDS011;557;48.466;7.950;2023-02-05T00:52:50;5.93;;;3.00;;
1136;SDS011;557;48.466;7.950;2023-02-05T00:55:37;6.60;;;3.03;;
1136;SDS011;557;48.466;7.950;2023-02-05T00:58:24;6.93;;;2.90;;
1136;SDS011;557;48.466;7.950;2023-02-05T01:01:12;6.70;;;2.77;;
1136;SDS011;557;48.466;7.950;2023-02-05T01:03:59;7.57;;;3.93;;
1136;SDS011;557;48.466;7.950;2023-02-05T01:06:47;6.40;;;3.10;;
1136;SDS011;557;48.466;7.950;2023-02-05T01:09:36;5.17;;;2.90;;
1136;SDS011;557;48.466;7.950;2023-02-05T01:12:23;5.70;;;3.40;;
1136;SDS011;557;48.466;7.950;2023-02-05T01:15:11;8.10;;;3.43;;
1136;SDS011;557;48.466;7.950;2023-02-05T01:17:59;5.27;;;3.73;;
1136;SDS011;557;48.466;7.950;2023-02-05T01:20:47;6.53;;;3.63;;
1136;SDS011;557;48.466;7.950;2023-02-05T01:23:34;13.07;;;5.77;;
1136;SDS011;557;48.466;7.950;2023-02-05T01:26:23;11.30;;;4.30;;
1136;SDS011;557;48.466;7.950;2023-02-05T01:29:10;7.13;;;4.27;;
1136;SDS011;557;48.466;7.950;2023-02-05T01:31:57;10.13;;;3.70;;
1136;SDS011;557;48.466;7.950;2023-02-05T01:34:44;7.17;;;3.10;;
1136;SDS011;557;48.466;7.950;2023-02-05T01:37:32;10.90;;;3.90;;
1136;SDS011;557;48.466;7.950;2023-02-05T01:40:19;6.87;;;3.03;;
1136;SDS011;557;48.466;7.950;2023-02-05T01:43:10;3.97;;;2.93;;
1136;SDS011;557;48.466;7.950;2023-02-05T01:49:11;7.77;;;3.03;;
1136;SDS011;557;48.466;7.950;2023-02-05T01:52:04;9.73;;;3.90;;
1136;SDS011;557;48.466;7.950;2023-02-05T01:54:55;4.63;;;2.67;;
1136;SDS011;557;48.466;7.950;2023-02-05T01:57:43;9.00;;;3.60;;
1136;SDS011;557;48.466;7.950;2023-02-05T02:00:33;3.10;;;2.30;;
1136;SDS011;557;48.466;7.950;2023-02-05T02:03:20;4.90;;;3.30;;
1136;SDS011;557;48.466;7.950;2023-02-05T02:06:12;4.23;;;2.87;;
1136;SDS011;557;48.466;7.950;2023-02-05T02:08:59;11.10;;;3.00;;
1136;SDS011;557;48.466;7.950;2023-02-05T02:11:47;6.03;;;2.90;;
1136;SDS011;557;48.466;7.950;2023-02-05T02:14:35;4.00;;;2.80;;
1136;SDS011;557;48.466;7.950;2023-02-05T02:17:25;5.27;;;2.97;;
1136;SDS011;557;48.466;7.950;2023-02-05T02:20:14;5.13;;;3.10;;
1136;SDS011;557;48.466;7.950;2023-02-05T02:23:06;8.80;;;3.90;;
1136;SDS011;557;48.466;7.950;2023-02-05T02:26:16;5.50;;;3.53;;
1136;SDS011;557;48.466;7.950;2023-02-05T02:29:20;7.20;;;3.50;;
1136;SDS011;557;48.466;7.950;2023-02-05T02:32:17;6.30;;;3.50;;
1136;SDS011;557;48.466;7.950;2023-02-05T02:35:10;12.87;;;4.83;;
1136;SDS011;557;48.466;7.950;2023-02-05T02:38:05;6.50;;;3.03;;
1136;SDS011;557;48.466;7.950;2023-02-05T02:40:58;10.03;;;3.43;;
1136;SDS011;557;48.466;7.950;2023-02-05T02:43:49;5.63;;;3.40;;
1136;SDS011;557;48.466;7.950;2023-02-05T02:46:42;7.03;;;2.70;;
1136;SDS011;557;48.466;7.950;2023-02-05T02:49:34;7.07;;;2.70;;
1136;SDS011;557;48.466;7.950;2023-02-05T02:52:24;7.03;;;2.50;;
1136;SDS011;557;48.466;7.950;2023-02-05T02:55:15;6.80;;;3.37;;
1136;SDS011;557;48.466;7.950;2023-02-05T02:58:06;6.10;;;2.87;;
1136;SDS011;557;48.466;7.950;2023-02-05T03:00:59;8.07;;;3.07;;
1136;SDS011;557;48.466;7.950;2023-02-05T03:03:52;5.33;;;2.63;;
1136;SDS011;557;48.466;7.950;2023-02-05T03:06:45;4.03;;;2.80;;
1136;SDS011;557;48.466;7.950;2023-02-05T03:09:38;4.33;;;2.63;;
1136;SDS011;557;48.466;7.950;2023-02-05T03:12:31;6.93;;;3.30;;
1136;SDS011;557;48.466;7.950;2023-02-05T03:15:19;3.70;;;2.93;;
1136;SDS011;557;48.466;7.950;2023-02-05T03:18:06;3.40;;;2.53;;
1136;SDS011;557;48.466;7.950;2023-02-05T03:20:56;14.00;;;3.50;;
1136;SDS011;557;48.466;7.950;2023-02-05T03:23:47;5.67;;;2.87;;
1136;SDS011;557;48.466;7.950;2023-02-05T03:26:34;4.13;;;2.50;;
1136;SDS011;557;48.466;7.950;2023-02-05T03:29:24;6.57;;;2.50;;
1136;SDS011;557;48.466;7.950;2023-02-05T03:32:20;7.10;;;2.63;;
1136;SDS011;557;48.466;7.950;2023-02-05T03:35:24;3.00;;;2.03;;
1136;SDS011;557;48.466;7.950;2023-02-05T03:38:24;7.30;;;2.50;;
1136;SDS011;557;48.466;7.950;2023-02-05T03:41:24;5.10;;;2.80;;
1136;SDS011;557;48.466;7.950;2023-02-05T03:44:47;6.93;;;2.27;;
1136;SDS011;557;48.466;7.950;2023-02-05T03:48:00;4.20;;;2.47;;
1136;SDS011;557;48.466;7.950;2023-02-05T03:51:01;8.37;;;2.97;;
1136;SDS011;557;48.466;7.950;2023-02-05T03:54:06;5.00;;;2.47;;
1136;SDS011;557;48.466;7.950;2023-02-05T03:56:59;9.60;;;3.00;;
1136;SDS011;557;48.466;7.950;2023-02-05T03:59:51;3.87;;;2.20;;
1136;SDS011;557;48.466;7.950;2023-02-05T04:02:40;4.90;;;2.90;;
1136;SDS011;557;48.466;7.950;2023-02-05T04:05:28;4.60;;;2.90;;
1136;SDS011;557;48.466;7.950;2023-02-05T04:08:16;7.57;;;3.10;;
1136;SDS011;557;48.466;7.950;2023-02-05T04:11:04;5.43;;;2.47;;
1136;SDS011;557;48.466;7.950;2023-02-05T04:13:52;4.73;;;3.00;;
1136;SDS011;557;48.466;7.950;2023-02-05T04:16:39;5.00;;;2.83;;
1136;SDS011;557;48.466;7.950;2023-02-05T04:19:26;4.67;;;2.80;;
1136;SDS011;557;48.466;7.950;2023-02-05T04:22:14;6.77;;;2.80;;
1136;SDS011;557;48.466;7.950;2023-02-05T04:25:01;6.80;;;2.70;;
1136;SDS011;557;48.466;7.950;2023-02-05T04:27:50;8.17;;;2.27;;
1136;SDS011;557;48.466;7.950;2023-02-05T04:30:37;5.20;;;2.27;;
1136;SDS011;557;48.466;7.950;2023-02-05T04:33:25;5.17;;;2.20;;
1136;SDS011;557;48.466;7.950;2023-02-05T04:36:12;4.60;;;2.60;;
1136;SDS011;557;48.466;7.950;2023-02-05T04:38:59;3.60;;;2.50;;
1136;SDS011;557;48.466;7.950;2023-02-05T04:41:47;6.23;;;2.17;;
1136;SDS011;557;48.466;7.950;2023-02-05T04:44:35;4.63;;;2.90;;
1136;SDS011;557;48.466;7.950;2023-02-05T04:47:23;5.90;;;2.93;;
1136;SDS011;557;48.466;7.950;2023-02-05T04:50:10;5.13;;;2.73;;
1136;SDS011;557;48.466;7.950;2023-02-05T04:52:57;5.07;;;2.80;;
1136;SDS011;557;48.466;7.950;2023-02-05T04:55:46;4.03;;;2.50;;
1136;SDS011;557;48.466;7.950;2023-02-05T04:58:33;5.10;;;2.53;;
1136;SDS011;557;48.466;7.950;2023-02-05T05:01:22;5.43;;;3.20;;
1136;SDS011;557;48.466;7.950;2023-02-05T05:04:10;6.07;;;2.50;;
1136;SDS011;557;48.466;7.950;2023-02-05T05:06:57;10.63;;;2.80;;
1136;SDS011;557;48.466;7.950;2023-02-05T05:09:45;8.40;;;3.20;;
1136;SDS011;557;48.466;7.950;2023-02-05T05:12:33;3.83;;;2.50;;
1136;SDS011;557;48.466;7.950;2023-02-05T05:15:20;6.80;;;2.63;;
1136;SDS011;557;48.466;7.950;2023-02-05T05:18:09;5.33;;;2.23;;
1136;SDS011;557;48.466;7.950;2023-02-05T05:20:56;3.63;;;2.03;;
1136;SDS011;557;48.466;7.950;2023-02-05T05:23:43;5.57;;;2.70;;
1136;SDS011;557;48.466;7.950;2023-02-05T05:26:31;4.10;;;2.57;;
1136;SDS011;557;48.466;7.950;2023-02-05T05:29:18;3.73;;;1.93;;
1136;SDS011;557;48.466;7.950;2023-02-05T05:32:05;7.40;;;3.40;;
1136;SDS011;557;48.466;7.950;2023-02-05T05:34:57;5.53;;;2.40;;
1136;SDS011;557;48.466;7.950;2023-02-05T05:37:44;3.47;;;1.93;;
1136;SDS011;557;48.466;7.950;2023-02-05T05:40:32;12.40;;;3.47;;
1136;SDS011;557;48.466;7.950;2023-02-05T05:43:37;4.67;;;2.37;;
1136;SDS011;557;48.466;7.950;2023-02-05T05:46:33;4.77;;;2.60;;
1136;SDS011;557;48.466;7.950;2023-02-05T05:49:21;3.53;;;2.27;;
1136;SDS011;557;48.466;7.950;2023-02-05T05:52:10;6.20;;;2.53;;
1136;SDS011;557;48.466;7.950;2023-02-05T05:54:57;5.37;;;2.63;;
1136;SDS011;557;48.466;7.950;2023-02-05T05:57:45;5.67;;;2.30;;
1136;SDS011;557;48.466;7.950;2023-02-05T06:00:32;4.90;;;2.23;;
1136;SDS011;557;48.466;7.950;2023-02-05T06:03:19;3.40;;;2.20;;
1136;SDS011;557;48.466;7.950;2023-02-05T06:06:08;3.93;;;2.00;;
1136;SDS011;557;48.466;7.950;2023-02-05T06:08:59;8.93;;;2.77;;
1136;SDS011;557;48.466;7.950;2023-02-05T06:11:46;5.20;;;3.13;;
1136;SDS011;557;48.466;7.950;2023-02-05T06:14:33;8.47;;;3.27;;
1136;SDS011;557;48.466;7.950;2023-02-05T06:17:21;3.30;;;2.27;;
1136;SDS011;557;48.466;7.950;2023-02-05T06:20:09;4.53;;;2.60;;
1136;SDS011;557;48.466;7.950;2023-02-05T06:22:57;5.10;;;2.83;;
1136;SDS011;557;48.466;7.950;2023-02-05T06:25:46;3.87;;;2.00;;
1136;SDS011;557;48.466;7.950;2023-02-05T06:28:33;5.57;;;2.90;;
1136;SDS011;557;48.466;7.950;2023-02-05T06:31:20;3.70;;;2.43;;
1136;SDS011;557;48.466;7.950;2023-02-05T06:34:08;4.60;;;2.37;;
1136;SDS011;557;48.466;7.950;2023-02-05T06:36:55;4.87;;;2.50;;
1136;SDS011;557;48.466;7.950;2023-02-05T06:39:42;12.47;;;2.87;;
1136;SDS011;557;48.466;7.950;2023-02-05T06:42:31;4.47;;;2.43;;
1136;SDS011;557;48.466;7.950;2023-02-05T06:45:19;5.37;;;2.30;;
1136;SDS011;557;48.466;7.950;2023-02-05T06:48:06;5.27;;;2.70;;
1136;SDS011;557;48.466;7.950;2023-02-05T06:50:54;4.27;;;2.60;;
1136;SDS011;557;48.466;7.950;2023-02-05T06:53:41;3.53;;;2.53;;
1136;SDS011;557;48.466;7.950;2023-02-05T06:56:29;5.67;;;2.20;;
1136;SDS011;557;48.466;7.950;2023-02-05T06:59:17;7.57;;;2.60;;
1136;SDS011;557;48.466;7.950;2023-02-05T07:02:06;5.03;;;2.47;;
1136;SDS011;557;48.466;7.950;2023-02-05T07:04:55;6.40;;;2.80;;
1136;SDS011;557;48.466;7.950;2023-02-05T07:07:42;3.93;;;2.27;;
1136;SDS011;557;48.466;7.950;2023-02-05T07:10:30;5.70;;;2.83;;
1136;SDS011;557;48.466;7.950;2023-02-05T07:13:17;3.40;;;2.33;;
1136;SDS011;557;48.466;7.950;2023-02-05T07:16:06;3.50;;;2.30;;
1136;SDS011;557;48.466;7.950;2023-02-05T07:18:53;3.97;;;2.80;;
1136;SDS011;557;48.466;7.950;2023-02-05T07:21:41;5.90;;;3.30;;
1136;SDS011;557;48.466;7.950;2023-02-05T07:24:28;4.53;;;2.30;;
1136;SDS011;557;48.466;7.950;2023-02-05T07:27:16;10.87;;;3.03;;
1136;SDS011;557;48.466;7.950;2023-02-05T07:30:03;7.70;;;5.07;;
1136;SDS011;557;48.466;7.950;2023-02-05T07:32:53;9.40;;;3.90;;
1136;SDS011;557;48.466;7.950;2023-02-05T07:35:40;6.13;;;3.43;;
1136;SDS011;557;48.466;7.950;2023-02-05T07:38:27;11.50;;;3.40;;
1136;SDS011;557;48.466;7.950;2023-02-05T07:41:16;3.50;;;2.33;;
1136;SDS011;557;48.466;7.950;2023-02-05T07:44:03;5.10;;;2.60;;
1136;SDS011;557;48.466;7.950;2023-02-05T07:46:50;6.70;;;2.57;;
1136;SDS011;557;48.466;7.950;2023-02-05T07:49:39;4.47;;;2.57;;
1136;SDS011;557;48.466;7.950;2023-02-05T07:52:26;6.40;;;2.47;;
1136;SDS011;557;48.466;7.950;2023-02-05T07:55:14;7.10;;;3.00;;
1136;SDS011;557;48.466;7.950;2023-02-05T07:58:01;4.50;;;2.20;;
1136;SDS011;557;48.466;7.950;2023-02-05T08:00:48;6.00;;;2.50;;
1136;SDS011;557;48.466;7.950;2023-02-05T08:03:36;7.63;;;3.10;;
1136;SDS011;557;48.466;7.950;2023-02-05T08:06:24;10.57;;;2.77;;
1136;SDS011;557;48.466;7.950;2023-02-05T08:09:12;7.27;;;2.87;;
1136;SDS011;557;48.466;7.950;2023-02-05T08:12:01;4.43;;;2.63;;
1136;SDS011;557;48.466;7.950;2023-02-05T08:14:48;6.87;;;3.07;;
1136;SDS011;557;48.466;7.950;2023-02-05T08:17:37;4.07;;;2.23;;
1136;SDS011;557;48.466;7.950;2023-02-05T08:20:24;4.97;;;2.53;;
1136;SDS011;557;48.466;7.950;2023-02-05T08:23:13;6.77;;;2.13;;
1136;SDS011;557;48.466;7.950;2023-02-05T08:26:00;5.00;;;2.73;;
1136;SDS011;557;48.466;7.950;2023-02-05T08:28:47;4.67;;;2.93;;
1136;SDS011;557;48.466;7.950;2023-02-05T08:31:35;5.77;;;3.00;;
1136;SDS011;557;48.466;7.950;2023-02-05T08:34:23;5.90;;;3.30;;
1136;SDS011;557;48.466;7.950;2023-02-05T08:37:10;7.33;;;3.90;;
1136;SDS011;557;48.466;7.950;2023-02-05T08:39:59;5.87;;;3.67;;
1136;SDS011;557;48.466;7.950;2023-02-05T08:42:46;8.20;;;4.60;;
1136;SDS011;557;48.466;7.950;2023-02-05T08:45:37;7.87;;;4.73;;
1136;SDS011;557;48.466;7.950;2023-02-05T08:48:25;8.83;;;4.20;;
1136;SDS011;557;48.466;7.950;2023-02-05T08:51:12;12.03;;;4.60;;
1136;SDS011;557;48.466;7.950;2023-02-05T08:54:00;7.47;;;4.53;;
1136;SDS011;557;48.466;7.950;2023-02-05T08:56:50;7.20;;;4.17;;
1136;SDS011;557;48.466;7.950;2023-02-05T08:59:37;6.07;;;3.57;;
1136;SDS011;557;48.466;7.950;2023-02-05T09:02:25;7.27;;;3.60;;
1136;SDS011;557;48.466;7.950;2023-02-05T09:05:12;5.60;;;3.77;;
1136;SDS011;557;48.466;7.950;2023-02-05T09:07:59;6.73;;;4.07;;
1136;SDS011;557;48.466;7.950;2023-02-05T09:10:46;9.33;;;4.83;;
1136;SDS011;557;48.466;7.950;2023-02-05T09:13:35;4.20;;;3.70;;
1136;SDS011;557;48.466;7.950;2023-02-05T09:16:23;6.00;;;3.70;;
1136;SDS011;557;48.466;7.950;2023-02-05T09:19:11;6.03;;;3.10;;
1136;SDS011;557;48.466;7.950;2023-02-05T09:21:58;5.10;;;3.20;;
1136;SDS011;557;48.466;7.950;2023-02-05T09:24:46;5.33;;;3.07;;
1136;SDS011;557;48.466;7.950;2023-02-05T09:27:33;7.43;;;4.20;;
1136;SDS011;557;48.466;7.950;2023-02-05T09:30:22;10.40;;;3.67;;
1136;SDS011;557;48.466;7.950;2023-02-05T09:33:10;4.40;;;3.20;;
1136;SDS011;557;48.466;7.950;2023-02-05T09:36:03;6.30;;;3.80;;
1136;SDS011;557;48.466;7.950;2023-02-05T09:38:51;5.50;;;3.80;;
1136;SDS011;557;48.466;7.950;2023-02-05T09:41:43;5.73;;;3.97;;
1136;SDS011;557;48.466;7.950;2023-02-05T09:44:42;10.67;;;3.60;;
1136;SDS011;557;48.466;7.950;2023-02-05T09:47:39;8.33;;;3.87;;
1136;SDS011;557;48.466;7.950;2023-02-05T09:50:32;7.50;;;3.90;;
1136;SDS011;557;48.466;7.950;2023-02-05T09:53:22;5.97;;;3.10;;
1136;SDS011;557;48.466;7.950;2023-02-05T09:56:11;4.20;;;3.00;;
1136;SDS011;557;48.466;7.950;2023-02-05T09:59:00;6.03;;;3.23;;
1136;SDS011;557;48.466;7.950;2023-02-05T10:01:50;5.80;;;3.30;;
1136;SDS011;557;48.466;7.950;2023-02-05T10:04:41;7.87;;;3.23;;
1136;SDS011;557;48.466;7.950;2023-02-05T10:07:31;5.53;;;3.47;;
1136;SDS011;557;48.466;7.950;2023-02-05T10:10:27;11.27;;;6.03;;
1136;SDS011;557;48.466;7.950;2023-02-05T10:13:26;10.00;;;6.10;;
1136;SDS011;557;48.466;7.950;2023-02-05T10:16:35;6.93;;;3.40;;
1136;SDS011;557;48.466;7.950;2023-02-05T10:22:51;6.97;;;3.60;;
1136;SDS011;557;48.466;7.950;2023-02-05T10:25:54;7.53;;;3.27;;
1136;SDS011;557;48.466;7.950;2023-02-05T10:32:05;9.60;;;5.57;;
1136;SDS011;557;48.466;7.950;2023-02-05T10:35:05;7.97;;;4.70;;
1136;SDS011;557;48.466;7.950;2023-02-05T10:38:09;10.67;;;4.60;;
1136;SDS011;557;48.466;7.950;2023-02-05T10:41:13;10.47;;;4.30;;
1136;SDS011;557;48.466;7.950;2023-02-05T10:44:09;7.93;;;4.40;;
1136;SDS011;557;48.466;7.950;2023-02-05T10:46:59;9.83;;;4.67;;
1136;SDS011;557;48.466;7.950;2023-02-05T10:49:52;9.47;;;4.60;;
1136;SDS011;557;48.466;7.950;2023-02-05T10:52:44;7.77;;;3.70;;
1136;SDS011;557;48.466;7.950;2023-02-05T10:55:32;8.33;;;4.67;;
1136;SDS011;557;48.466;7.950;2023-02-05T10:58:37;7.17;;;4.93;;
1136;SDS011;557;48.466;7.950;2023-02-05T11:01:59;6.70;;;4.63;;
1136;SDS011;557;48.466;7.950;2023-02-05T11:04:49;6.47;;;3.60;;
1136;SDS011;557;48.466;7.950;2023-02-05T11:07:42;9.87;;;5.97;;
1136;SDS011;557;48.466;7.950;2023-02-05T11:10:33;12.00;;;4.40;;
1136;SDS011;557;48.466;7.950;2023-02-05T11:13:20;11.57;;;6.57;;
1136;SDS011;557;48.466;7.950;2023-02-05T11:16:08;8.63;;;5.53;;
1136;SDS011;557;48.466;7.950;2023-02-05T11:18:57;8.17;;;4.87;;
1136;SDS011;557;48.466;7.950;2023-02-05T11:21:48;10.67;;;4.97;;
1136;SDS011;557;48.466;7.950;2023-02-05T11:24:39;10.83;;;5.50;;
1136;SDS011;557;48.466;7.950;2023-02-05T11:27:27;11.00;;;6.50;;
1136;SDS011;557;48.466;7.950;2023-02-05T11:30:17;12.30;;;6.70;;
1136;SDS011;557;48.466;7.950;2023-02-05T11:33:17;14.53;;;6.60;;
1136;SDS011;557;48.466;7.950;2023-02-05T11:36:13;9.63;;;5.23;;
1136;SDS011;557;48.466;7.950;2023-02-05T11:39:03;10.63;;;6.73;;
1136;SDS011;557;48.466;7.950;2023-02-05T11:41:53;9.40;;;4.80;;
1136;SDS011;557;48.466;7.950;2023-02-05T11:44:45;11.33;;;4.73;;
1136;SDS011;557;48.466;7.950;2023-02-05T11:47:35;9.70;;;5.40;;
1136;SDS011;557;48.466;7.950;2023-02-05T11:50:26;9.10;;;5.27;;
1136;SDS011;557;48.466;7.950;2023-02-05T11:53:16;11.90;;;5.67;;
1136;SDS011;557;48.466;7.950;2023-02-05T11:56:07;10.03;;;5.30;;
1136;SDS011;557;48.466;7.950;2023-02-05T11:58:59;9.57;;;5.83;;
1136;SDS011;557;48.466;7.950;2023-02-05T12:01:47;13.93;;;6.93;;
1136;SDS011;557;48.466;7.950;2023-02-05T12:04:37;10.17;;;6.20;;
1136;SDS011;557;48.466;7.950;2023-02-05T12:07:34;10.07;;;5.63;;
1136;SDS011;557;48.466;7.950;2023-02-05T12:10:27;35.43;;;14.43;;
1136;SDS011;557;48.466;7.950;2023-02-05T12:13:23;29.80;;;13.10;;
1136;SDS011;557;48.466;7.950;2023-02-05T12:16:20;15.73;;;6.50;;
1136;SDS011;557;48.466;7.950;2023-02-05T12:19:20;14.83;;;7.80;;
1136;SDS011;557;48.466;7.950;2023-02-05T12:22:14;14.20;;;6.50;;
1136;SDS011;557;48.466;7.950;2023-02-05T12:25:12;10.97;;;5.30;;
1136;SDS011;557;48.466;7.950;2023-02-05T12:28:10;13.40;;;7.03;;
1136;SDS011;557;48.466;7.950;2023-02-05T12:31:13;9.53;;;6.13;;
1136;SDS011;557;48.466;7.950;2023-02-05T12:34:14;11.43;;;6.20;;
1136;SDS011;557;48.466;7.950;2023-02-05T12:37:21;11.63;;;6.27;;
1136;SDS011;557;48.466;7.950;2023-02-05T12:40:23;9.93;;;5.57;;
1136;SDS011;557;48.466;7.950;2023-02-05T12:43:29;14.63;;;7.47;;
1136;SDS011;557;48.466;7.950;2023-02-05T12:49:46;13.43;;;7.77;;
1136;SDS011;557;48.466;7.950;2023-02-05T12:52:51;8.60;;;5.23;;
1136;SDS011;557;48.466;7.950;2023-02-05T12:55:50;15.20;;;6.20;;
1136;SDS011;557;48.466;7.950;2023-02-05T12:58:53;13.13;;;6.20;;
1136;SDS011;557;48.466;7.950;2023-02-05T13:01:46;13.20;;;6.93;;
1136;SDS011;557;48.466;7.950;2023-02-05T13:04:38;16.03;;;6.90;;
1136;SDS011;557;48.466;7.950;2023-02-05T13:07:29;12.83;;;6.60;;
1136;SDS011;557;48.466;7.950;2023-02-05T13:10:23;10.80;;;6.40;;
1136;SDS011;557;48.466;7.950;2023-02-05T13:13:13;10.87;;;6.23;;
1136;SDS011;557;48.466;7.950;2023-02-05T13:16:06;15.37;;;7.93;;
1136;SDS011;557;48.466;7.950;2023-02-05T13:18:57;12.27;;;7.67;;
1136;SDS011;557;48.466;7.950;2023-02-05T13:21:50;9.00;;;6.23;;
1136;SDS011;557;48.466;7.950;2023-02-05T13:24:59;9.03;;;5.57;;
1136;SDS011;557;48.466;7.950;2023-02-05T13:28:12;10.77;;;6.30;;
1136;SDS011;557;48.466;7.950;2023-02-05T13:31:26;10.87;;;7.00;;
1136;SDS011;557;48.466;7.950;2023-02-05T13:34:17;10.80;;;6.10;;
1136;SDS011;557;48.466;7.950;2023-02-05T13:40:23;8.77;;;5.50;;
1136;SDS011;557;48.466;7.950;2023-02-05T13:43:51;9.63;;;5.97;;
1136;SDS011;557;48.466;7.950;2023-02-05T13:47:07;18.23;;;6.80;;
1136;SDS011;557;48.466;7.950;2023-02-05T13:50:21;18.33;;;10.03;;
1136;SDS011;557;48.466;7.950;2023-02-05T13:53:25;13.33;;;7.40;;
1136;SDS011;557;48.466;7.950;2023-02-05T13:56:34;13.80;;;7.67;;
1136;SDS011;557;48.466;7.950;2023-02-05T13:59:33;16.87;;;8.90;;
1136;SDS011;557;48.466;7.950;2023-02-05T14:02:29;13.67;;;8.10;;
1136;SDS011;557;48.466;7.950;2023-02-05T14:05:26;13.57;;;8.50;;
1136;SDS011;557;48.466;7.950;2023-02-05T14:08:18;14.73;;;8.60;;
1136;SDS011;557;48.466;7.950;2023-02-05T14:11:09;12.30;;;8.27;;
1136;SDS011;557;48.466;7.950;2023-02-05T14:14:12;12.90;;;7.83;;
1136;SDS011;557;48.466;7.950;2023-02-05T14:20:37;16.57;;;9.77;;
1136;SDS011;557;48.466;7.950;2023-02-05T14:26:44;13.80;;;8.50;;
1136;SDS011;557;48.466;7.950;2023-02-05T14:29:37;14.13;;;8.73;;
1136;SDS011;557;48.466;7.950;2023-02-05T14:35:43;15.13;;;8.20;;
1136;SDS011;557;48.466;7.950;2023-02-05T14:38:33;13.70;;;6.57;;
1136;SDS011;557;48.466;7.950;2023-02-05T14:41:23;11.13;;;6.40;;
1136;SDS011;557;48.466;7.950;2023-02-05T14:44:16;13.70;;;9.40;;
1136;SDS011;557;48.466;7.950;2023-02-05T14:47:16;12.27;;;7.33;;
1136;SDS011;557;48.466;7.950;2023-02-05T14:50:07;12.43;;;6.73;;
1136;SDS011;557;48.466;7.950;2023-02-05T14:52:57;16.67;;;6.80;;
1136;SDS011;557;48.466;7.950;2023-02-05T14:55:46;8.20;;;5.60;;
1136;SDS011;557;48.466;7.950;2023-02-05T14:58:35;15.23;;;7.00;;
1136;SDS011;557;48.466;7.950;2023-02-05T15:01:39;11.67;;;7.00;;
1136;SDS011;557;48.466;7.950;2023-02-05T15:04:36;17.57;;;8.43;;
1136;SDS011;557;48.466;7.950;2023-02-05T15:07:29;17.97;;;11.33;;
1136;SDS011;557;48.466;7.950;2023-02-05T15:10:22;18.90;;;10.77;;
1136;SDS011;557;48.466;7.950;2023-02-05T15:13:13;14.90;;;8.90;;
1136;SDS011;557;48.466;7.950;2023-02-05T15:16:18;17.83;;;9.60;;
1136;SDS011;557;48.466;7.950;2023-02-05T15:19:08;16.77;;;9.43;;
1136;SDS011;557;48.466;7.950;2023-02-05T15:21:58;14.40;;;8.97;;
1136;SDS011;557;48.466;7.950;2023-02-05T15:24:47;48.50;;;23.20;;
1136;SDS011;557;48.466;7.950;2023-02-05T15:27:39;19.90;;;9.60;;
1136;SDS011;557;48.466;7.950;2023-02-05T15:30:30;15.17;;;8.53;;
1136;SDS011;557;48.466;7.950;2023-02-05T15:33:31;11.80;;;7.57;;
1136;SDS011;557;48.466;7.950;2023-02-05T15:36:29;16.93;;;8.97;;
1136;SDS011;557;48.466;7.950;2023-02-05T15:39:22;16.23;;;9.10;;
1136;SDS011;557;48.466;7.950;2023-02-05T15:42:15;13.63;;;8.47;;
1136;SDS011;557;48.466;7.950;2023-02-05T15:45:15;16.60;;;9.00;;
1136;SDS011;557;48.466;7.950;2023-02-05T15:48:04;25.97;;;13.03;;
1136;SDS011;557;48.466;7.950;2023-02-05T15:50:58;17.73;;;9.93;;
1136;SDS011;557;48.466;7.950;2023-02-05T15:53:49;19.37;;;9.00;;
1136;SDS011;557;48.466;7.950;2023-02-05T15:56:37;18.67;;;10.13;;
1136;SDS011;557;48.466;7.950;2023-02-05T15:59:27;15.07;;;9.60;;
1136;SDS011;557;48.466;7.950;2023-02-05T16:02:17;20.00;;;10.00;;
1136;SDS011;557;48.466;7.950;2023-02-05T16:05:14;29.10;;;16.43;;
1136;SDS011;557;48.466;7.950;2023-02-05T16:08:13;31.37;;;18.63;;
1136;SDS011;557;48.466;7.950;2023-02-05T16:11:04;23.93;;;14.10;;
1136;SDS011;557;48.466;7.950;2023-02-05T16:14:01;24.70;;;15.10;;
1136;SDS011;557;48.466;7.950;2023-02-05T16:16:56;17.77;;;10.50;;
1136;SDS011;557;48.466;7.950;2023-02-05T16:19:50;22.80;;;11.60;;
1136;SDS011;557;48.466;7.950;2023-02-05T16:22:41;11.43;;;7.50;;
1136;SDS011;557;48.466;7.950;2023-02-05T16:25:32;8.13;;;5.13;;
1136;SDS011;557;48.466;7.950;2023-02-05T16:28:28;8.77;;;5.77;;
1136;SDS011;557;48.466;7.950;2023-02-05T16:31:23;8.50;;;5.17;;
1136;SDS011;557;48.466;7.950;2023-02-05T16:34:12;10.77;;;5.67;;
1136;SDS011;557;48.466;7.950;2023-02-05T16:37:03;12.80;;;6.63;;
1136;SDS011;557;48.466;7.950;2023-02-05T16:39:53;18.10;;;8.83;;
1136;SDS011;557;48.466;7.950;2023-02-05T16:42:42;18.63;;;11.33;;
1136;SDS011;557;48.466;7.950;2023-02-05T16:45:33;15.53;;;9.80;;
1136;SDS011;557;48.466;7.950;2023-02-05T16:48:21;12.70;;;8.97;;
1136;SDS011;557;48.466;7.950;2023-02-05T16:51:25;16.53;;;9.90;;
1136;SDS011;557;48.466;7.950;2023-02-05T16:54:24;19.63;;;10.07;;
1136;SDS011;557;48.466;7.950;2023-02-05T16:57:21;15.27;;;9.90;;
1136;SDS011;557;48.466;7.950;2023-02-05T17:00:17;32.07;;;16.23;;
1136;SDS011;557;48.466;7.950;2023-02-05T17:03:13;18.67;;;10.77;;
1136;SDS011;557;48.466;7.950;2023-02-05T17:06:06;37.63;;;20.50;;
1136;SDS011;557;48.466;7.950;2023-02-05T17:08:58;31.23;;;19.17;;
1136;SDS011;557;48.466;7.950;2023-02-05T17:11:46;28.10;;;16.67;;
1136;SDS011;557;48.466;7.950;2023-02-05T17:14:33;29.67;;;16.50;;
1136;SDS011;557;48.466;7.950;2023-02-05T17:17:21;32.20;;;17.77;;
1136;SDS011;557;48.466;7.950;2023-02-05T17:20:18;18.70;;;12.07;;
1136;SDS011;557;48.466;7.950;2023-02-05T17:23:08;20.47;;;13.20;;
1136;SDS011;557;48.466;7.950;2023-02-05T17:25:57;43.37;;;20.40;;
1136;SDS011;557;48.466;7.950;2023-02-05T17:28:44;15.30;;;9.47;;
1136;SDS011;557;48.466;7.950;2023-02-05T17:31:37;10.93;;;7.83;;
1136;SDS011;557;48.466;7.950;2023-02-05T17:34:25;13.60;;;8.63;;
1136;SDS011;557;48.466;7.950;2023-02-05T17:37:14;19.67;;;13.00;;
1136;SDS011;557;48.466;7.950;2023-02-05T17:40:01;21.20;;;14.17;;
1136;SDS011;557;48.466;7.950;2023-02-05T17:42:49;16.93;;;11.37;;
1136;SDS011;557;48.466;7.950;2023-02-05T17:45:37;25.37;;;13.70;;
1136;SDS011;557;48.466;7.950;2023-02-05T17:48:27;31.57;;;16.80;;
1136;SDS011;557;48.466;7.950;2023-02-05T17:51:16;16.30;;;9.60;;
1136;SDS011;557;48.466;7.950;2023-02-05T17:54:08;12.67;;;8.10;;
1136;SDS011;557;48.466;7.950;2023-02-05T17:57:00;14.10;;;9.43;;
1136;SDS011;557;48.466;7.950;2023-02-05T17:59:59;13.97;;;9.97;;
1136;SDS011;557;48.466;7.950;2023-02-05T18:02:47;19.17;;;11.93;;
1136;SDS011;557;48.466;7.950;2023-02-05T18:05:35;22.07;;;12.20;;
1136;SDS011;557;48.466;7.950;2023-02-05T18:08:38;14.73;;;9.10;;
1136;SDS011;557;48.466;7.950;2023-02-05T18:11:28;14.03;;;8.10;;
1136;SDS011;557;48.466;7.950;2023-02-05T18:14:15;14.17;;;8.07;;
1136;SDS011;557;48.466;7.950;2023-02-05T18:17:06;11.17;;;6.43;;
1136;SDS011;557;48.466;7.950;2023-02-05T18:19:53;10.80;;;6.20;;
1136;SDS011;557;48.466;7.950;2023-02-05T18:22:40;13.43;;;7.20;;